Time;durP1;ratioP1;P1;durP2;ratioP2;P2;SDS_P1;SDS_P2;PMS_P1;PMS_P2;Temp;Humidity;BMP_temperature;BMP_pressure;BME280_temperature;BME280_humidity;BME280_pressure;Samples;Min_cycle;Max_cycle;Signal;HPM_P1;HPM_P2
2022/05/27 00:00:04;;;;;;;11.48;5.03;;;;;;;;;;7391810;19;20018;-61
2022/05/27 00:02:33;;;;;;;8.35;4.30;;;;;;;;;;7399036;19;20015;-60
2022/05/27 00:05:02;;;;;;;9.63;4.47;;;;;;;;;;7394442;19;20018;-61
2022/05/27 00:07:31;;;;;;;9.75;4.88;;;;;;;;;;7392881;19;20023;-59
2022/05/27 00:10:02;;;;;;;10.45;4.53;;;;;;;;;;7393806;19;20014;-61
2022/05/27 00:12:30;;;;;;;14.82;7.47;;;;;;;;;;7394627;19;20405;-57
2022/05/27 00:14:59;;;;;;;14.07;7.28;;;;;;;;;;7394649;19;20014;-60
2022/05/27 00:17:27;;;;;;;10.77;5.15;;;;;;;;;;7392382;19;20039;-60
2022/05/27 00:19:56;;;;;;;11.07;5.50;;;;;;;;;;7392154;19;20086;-55
2022/05/27 00:22:24;;;;;;;10.80;5.32;;;;;;;;;;7394021;19;20010;-60
2022/05/27 00:24:53;;;;;;;11.50;5.47;;;;;;;;;;7394555;19;20015;-59
2022/05/27 00:27:24;;;;;;;11.15;5.28;;;;;;;;;;7392393;19;20647;-60
2022/05/27 00:29:52;;;;;;;13.48;5.50;;;;;;;;;;7395636;19;20013;-60
2022/05/27 00:32:21;;;;;;;11.55;5.57;;;;;;;;;;7393468;19;20021;-57
2022/05/27 00:34:49;;;;;;;13.88;6.13;;;;;;;;;;7394001;19;20339;-59
2022/05/27 00:37:18;;;;;;;14.23;6.82;;;;;;;;;;7391652;19;20019;-60
2022/05/27 00:39:46;;;;;;;14.20;7.03;;;;;;;;;;7391178;19;20499;-55
2022/05/27 00:42:15;;;;;;;14.02;7.20;;;;;;;;;;7393185;19;20017;-55
2022/05/27 00:44:46;;;;;;;15.25;8.30;;;;;;;;;;7393660;19;20013;-60
2022/05/27 00:47:16;;;;;;;17.05;10.27;;;;;;;;;;7392355;19;20032;-65
2022/05/27 00:49:46;;;;;;;20.38;10.65;;;;;;;;;;7392593;19;20071;-61
2022/05/27 00:52:15;;;;;;;17.35;9.15;;;;;;;;;;7393156;19;20418;-63
2022/05/27 00:54:45;;;;;;;16.30;8.95;;;;;;;;;;7393611;19;20010;-64
2022/05/27 00:57:16;;;;;;;16.42;8.00;;;;;;;;;;7391428;19;20025;-65
2022/05/27 00:59:50;;;;;;;14.80;8.20;;;;;;;;;;7392363;19;20010;-65
2022/05/27 01:02:19;;;;;;;11.95;6.70;;;;;;;;;;7396860;19;20414;-64
2022/05/27 01:04:48;;;;;;;15.10;6.90;;;;;;;;;;7393180;19;20529;-64
2022/05/27 01:07:17;;;;;;;16.33;7.97;;;;;;;;;;7391750;19;20094;-64
2022/05/27 01:09:46;;;;;;;21.40;9.13;;;;;;;;;;7393142;19;20010;-64
2022/05/27 01:12:30;;;;;;;10.77;6.97;;;;;;;;;;7393164;19;20478;-64
2022/05/27 01:15:10;;;;;;;12.80;8.25;;;;;;;;;;7394085;19;20411;-62
2022/05/27 01:17:43;;;;;;;16.13;7.97;;;;;;;;;;7393297;19;20018;-62
2022/05/27 01:20:18;;;;;;;16.33;8.45;;;;;;;;;;7391506;19;20041;-64
2022/05/27 01:22:49;;;;;;;15.13;7.78;;;;;;;;;;7393688;19;20701;-61
2022/05/27 01:25:30;;;;;;;12.63;7.50;;;;;;;;;;7393298;19;20325;-64
2022/05/27 01:28:14;;;;;;;14.75;8.45;;;;;;;;;;7392706;19;20015;-66
2022/05/27 01:30:47;;;;;;;13.52;8.15;;;;;;;;;;7392409;19;20007;-63
2022/05/27 01:33:30;;;;;;;17.52;8.07;;;;;;;;;;7393475;19;20086;-63
2022/05/27 01:36:03;;;;;;;14.85;8.43;;;;;;;;;;7392189;19;20014;-65
2022/05/27 01:38:35;;;;;;;13.80;8.95;;;;;;;;;;7388929;19;20029;-63
2022/05/27 01:41:04;;;;;;;14.07;8.73;;;;;;;;;;7391002;19;20015;-64
2022/05/27 01:43:37;;;;;;;16.25;8.88;;;;;;;;;;7392766;19;20019;-61
2022/05/27 01:46:10;;;;;;;18.05;9.32;;;;;;;;;;7391593;19;20023;-63
2022/05/27 01:48:38;;;;;;;;;;;;;;;;;;7392719;19;20058;-63
2022/05/27 01:51:09;;;;;;;15.82;9.23;;;;;;;;;;7396126;19;19921;-61
2022/05/27 01:53:42;;;;;;;18.98;10.52;;;;;;;;;;7392107;19;20019;-64
2022/05/27 01:56:14;;;;;;;15.85;8.35;;;;;;;;;;7390728;19;20021;-57
2022/05/27 01:58:43;;;;;;;19.08;9.60;;;;;;;;;;7391798;19;20021;-63
2022/05/27 02:01:15;;;;;;;19.55;10.57;;;;;;;;;;7387170;19;20018;-62
2022/05/27 02:03:45;;;;;;;16.73;10.68;;;;;;;;;;7392250;19;20014;-63
2022/05/27 02:06:15;;;;;;;17.38;9.40;;;;;;;;;;7392908;19;20018;-63
2022/05/27 02:08:48;;;;;;;19.63;10.48;;;;;;;;;;7392198;19;20021;-63
2022/05/27 02:11:17;;;;;;;21.33;10.98;;;;;;;;;;7391187;19;20062;-62
2022/05/27 02:13:48;;;;;;;20.05;10.57;;;;;;;;;;7391971;19;20351;-63
2022/05/27 02:16:21;;;;;;;17.75;11.50;;;;;;;;;;7391917;19;20020;-60
2022/05/27 02:18:51;;;;;;;18.45;11.15;;;;;;;;;;7391497;19;20510;-59
2022/05/27 02:21:23;;;;;;;21.10;11.43;;;;;;;;;;7388951;19;20014;-62
2022/05/27 02:23:54;;;;;;;21.17;10.77;;;;;;;;;;7391734;19;20029;-59
2022/05/27 02:26:33;;;;;;;19.63;10.82;;;;;;;;;;7390686;19;20011;-60
2022/05/27 02:29:04;;;;;;;24.52;13.10;;;;;;;;;;7391033;19;20007;-65
2022/05/27 02:31:37;;;;;;;28.73;14.55;;;;;;;;;;7395077;19;20517;-58
2022/05/27 02:36:58;;;;;;;22.50;11.63;;;;;;;;;;7385183;19;20028;-60
2022/05/27 02:39:27;;;;;;;17.63;10.20;;;;;;;;;;7390223;19;20022;-66
2022/05/27 02:42:00;;;;;;;21.13;10.02;;;;;;;;;;7392150;19;20014;-66
2022/05/27 02:44:34;;;;;;;17.25;9.85;;;;;;;;;;7393244;19;20090;-67
2022/05/27 02:47:08;;;;;;;22.45;10.30;;;;;;;;;;7389727;19;20013;-65
2022/05/27 02:49:40;;;;;;;16.77;10.27;;;;;;;;;;7391181;19;20011;-58
2022/05/27 02:52:13;;;;;;;22.25;13.73;;;;;;;;;;7391482;19;20014;-58
2022/05/27 02:54:45;;;;;;;20.80;12.35;;;;;;;;;;7390558;19;20014;-60
2022/05/27 02:57:16;;;;;;;21.60;11.82;;;;;;;;;;7390193;19;20010;-65
2022/05/27 02:59:45;;;;;;;26.23;11.55;;;;;;;;;;7389375;19;20014;-55
2022/05/27 03:02:17;;;;;;;19.80;11.23;;;;;;;;;;7390935;19;20076;-55
2022/05/27 03:04:48;;;;;;;26.43;12.97;;;;;;;;;;7390781;19;20320;-57
2022/05/27 03:07:23;;;;;;;21.52;11.60;;;;;;;;;;7388969;19;20624;-55
2022/05/27 03:09:55;;;;;;;21.80;11.68;;;;;;;;;;7389800;19;20023;-55
2022/05/27 03:12:30;;;;;;;24.40;12.75;;;;;;;;;;7391985;19;20367;-56
2022/05/27 03:15:04;;;;;;;26.35;13.13;;;;;;;;;;7399025;19;20015;-58
2022/05/27 03:17:42;;;;;;;24.02;13.27;;;;;;;;;;7398091;19;20430;-56
2022/05/27 03:20:19;;;;;;;24.58;14.43;;;;;;;;;;7397145;19;20018;-57
2022/05/27 03:22:54;;;;;;;26.17;13.80;;;;;;;;;;7396977;19;20014;-55
2022/05/27 03:25:27;;;;;;;21.73;12.60;;;;;;;;;;7394712;19;20026;-62
2022/05/27 03:28:00;;;;;;;24.60;13.93;;;;;;;;;;7396183;19;20018;-55
2022/05/27 03:30:32;;;;;;;25.33;12.88;;;;;;;;;;7398524;19;20099;-60
2022/05/27 03:33:08;;;;;;;28.90;13.35;;;;;;;;;;7397132;19;20025;-62
2022/05/27 03:35:38;;;;;;;24.73;13.27;;;;;;;;;;7396207;19;20028;-57
2022/05/27 03:38:09;;;;;;;25.17;14.23;;;;;;;;;;7396386;19;20100;-62
2022/05/27 03:40:41;;;;;;;24.85;13.18;;;;;;;;;;7394192;19;20405;-60
2022/05/27 03:43:10;;;;;;;23.73;12.18;;;;;;;;;;7396377;19;20643;-60
2022/05/27 03:45:49;;;;;;;28.15;12.43;;;;;;;;;;7396928;19;20011;-60
2022/05/27 03:48:21;;;;;;;27.65;12.50;;;;;;;;;;7396039;19;20010;-56
2022/05/27 03:50:50;;;;;;;18.85;10.95;;;;;;;;;;7395088;19;20010;-63
2022/05/27 03:53:19;;;;;;;21.42;10.00;;;;;;;;;;7395365;19;20507;-57
2022/05/27 03:55:47;;;;;;;23.48;9.32;;;;;;;;;;7398231;19;20023;-62
2022/05/27 03:58:16;;;;;;;20.48;8.77;;;;;;;;;;7396816;19;20079;-62
2022/05/27 04:00:45;;;;;;;17.83;8.55;;;;;;;;;;7393693;19;20022;-59
2022/05/27 04:03:14;;;;;;;20.85;9.10;;;;;;;;;;7400635;19;20044;-60
2022/05/27 04:05:45;;;;;;;19.30;8.57;;;;;;;;;;7397884;19;20471;-62
2022/05/27 04:08:13;;;;;;;16.85;7.80;;;;;;;;;;7399917;19;20090;-61
2022/05/27 04:10:42;;;;;;;18.20;7.80;;;;;;;;;;7394540;19;20014;-56
2022/05/27 04:13:10;;;;;;;18.00;8.45;;;;;;;;;;7394998;19;20018;-61
2022/05/27 04:15:39;;;;;;;16.50;7.95;;;;;;;;;;7397792;19;20014;-59
2022/05/27 04:18:08;;;;;;;20.60;8.02;;;;;;;;;;7398166;19;20022;-62
2022/05/27 04:20:36;;;;;;;20.88;7.88;;;;;;;;;;7367822;19;20082;-62
2022/05/27 04:23:07;;;;;;;19.00;7.28;;;;;;;;;;7393441;19;20010;-59
2022/05/27 04:25:36;;;;;;;19.40;7.75;;;;;;;;;;7394110;19;20337;-63
2022/05/27 04:28:04;;;;;;;16.17;7.28;;;;;;;;;;7395190;19;20015;-59
2022/05/27 04:30:33;;;;;;;17.23;7.53;;;;;;;;;;7393892;19;20074;-59
2022/05/27 04:33:01;;;;;;;18.17;7.95;;;;;;;;;;7395103;19;20044;-54
2022/05/27 04:35:30;;;;;;;15.18;7.57;;;;;;;;;;7398403;19;20022;-61
2022/05/27 04:37:58;;;;;;;18.98;7.55;;;;;;;;;;7395506;19;20011;-59
2022/05/27 04:40:29;;;;;;;19.50;8.30;;;;;;;;;;7393050;19;20030;-62
2022/05/27 04:42:58;;;;;;;17.60;7.50;;;;;;;;;;7397510;19;20455;-60
2022/05/27 04:45:26;;;;;;;17.73;7.78;;;;;;;;;;7396032;19;20551;-60
2022/05/27 04:47:55;;;;;;;20.10;7.30;;;;;;;;;;7395264;19;20479;-60
2022/05/27 04:50:24;;;;;;;16.65;7.20;;;;;;;;;;7394559;19;20017;-61
2022/05/27 04:52:52;;;;;;;18.55;6.65;;;;;;;;;;7393824;19;20046;-56
2022/05/27 04:55:22;;;;;;;19.83;7.57;;;;;;;;;;7393483;19;20026;-61
2022/05/27 04:57:55;;;;;;;20.55;7.45;;;;;;;;;;7391650;19;20055;-59
2022/05/27 05:00:24;;;;;;;19.83;7.65;;;;;;;;;;7391357;19;20017;-61
2022/05/27 05:02:54;;;;;;;17.70;7.63;;;;;;;;;;7393719;19;20019;-61
2022/05/27 05:05:24;;;;;;;18.73;7.30;;;;;;;;;;7393658;19;20017;-60
2022/05/27 05:07:57;;;;;;;18.27;7.80;;;;;;;;;;7395777;19;20014;-59
2022/05/27 05:10:25;;;;;;;19.20;7.50;;;;;;;;;;7393609;19;20029;-61
2022/05/27 05:12:56;;;;;;;20.35;7.78;;;;;;;;;;7393463;19;20019;-60
2022/05/27 05:15:26;;;;;;;21.58;8.00;;;;;;;;;;7393257;19;20052;-61
2022/05/27 05:17:55;;;;;;;20.48;7.72;;;;;;;;;;7393285;19;20002;-58
2022/05/27 05:20:24;;;;;;;16.40;7.50;;;;;;;;;;7392007;19;20024;-61
2022/05/27 05:22:53;;;;;;;17.13;7.47;;;;;;;;;;7394929;19;20010;-59
2022/05/27 05:25:23;;;;;;;20.42;7.50;;;;;;;;;;7393693;19;20017;-61
2022/05/27 05:27:52;;;;;;;19.17;7.95;;;;;;;;;;7392420;19;20094;-59
2022/05/27 05:30:24;;;;;;;21.20;7.30;;;;;;;;;;7394566;19;20014;-58
2022/05/27 05:32:52;;;;;;;21.65;7.80;;;;;;;;;;7396186;19;20352;-56
2022/05/27 05:35:21;;;;;;;19.17;7.50;;;;;;;;;;7394500;19;20018;-60
2022/05/27 05:37:50;;;;;;;19.23;7.68;;;;;;;;;;7402319;19;20010;-59
2022/05/27 05:40:19;;;;;;;20.23;7.50;;;;;;;;;;7420048;19;20013;-62
2022/05/27 05:42:47;;;;;;;21.20;8.13;;;;;;;;;;7418769;19;20038;-56
2022/05/27 05:45:18;;;;;;;21.88;7.90;;;;;;;;;;7418680;19;20026;-57
2022/05/27 05:47:49;;;;;;;21.13;7.25;;;;;;;;;;7416465;19;20043;-59
2022/05/27 05:50:18;;;;;;;15.32;7.88;;;;;;;;;;7395241;19;20025;-58
2022/05/27 05:52:47;;;;;;;20.25;9.85;;;;;;;;;;7393413;19;20074;-57
2022/05/27 05:55:16;;;;;;;16.00;7.75;;;;;;;;;;7394805;19;20018;-61
2022/05/27 05:57:46;;;;;;;20.45;7.95;;;;;;;;;;7391364;19;20019;-59
2022/05/27 06:00:16;;;;;;;15.82;7.13;;;;;;;;;;7392342;19;20010;-60
2022/05/27 06:02:45;;;;;;;22.73;8.48;;;;;;;;;;7393425;19;20046;-61
2022/05/27 06:05:16;;;;;;;20.35;7.53;;;;;;;;;;7393889;19;20007;-61
2022/05/27 06:07:45;;;;;;;15.35;7.38;;;;;;;;;;7392254;19;20506;-62
2022/05/27 06:10:14;;;;;;;21.83;7.13;;;;;;;;;;7392811;19;20033;-57
2022/05/27 06:12:42;;;;;;;21.20;6.93;;;;;;;;;;7395947;19;20070;-59
2022/05/27 06:15:13;;;;;;;19.58;6.85;;;;;;;;;;7392653;19;20022;-62
2022/05/27 06:17:41;;;;;;;16.75;6.70;;;;;;;;;;7390342;19;20638;-61
2022/05/27 06:20:11;;;;;;;16.85;6.60;;;;;;;;;;7392075;19;20026;-62
2022/05/27 06:22:42;;;;;;;14.98;6.22;;;;;;;;;;7389955;19;20056;-62
2022/05/27 06:25:12;;;;;;;17.60;6.65;;;;;;;;;;7392740;19;20018;-61
2022/05/27 06:27:40;;;;;;;14.65;5.30;;;;;;;;;;7391798;19;20069;-59
2022/05/27 06:35:32;;;;;;;13.07;4.93;;;;;;;;;;7389777;19;20016;-56
2022/05/27 06:38:03;;;;;;;11.32;4.80;;;;;;;;;;7392196;19;20022;-61
2022/05/27 06:40:31;;;;;;;11.63;4.32;;;;;;;;;;7390989;19;20483;-60
2022/05/27 06:43:00;;;;;;;13.45;4.65;;;;;;;;;;7390971;19;20360;-59
2022/05/27 06:45:28;;;;;;;10.88;4.15;;;;;;;;;;7395155;19;20011;-60
2022/05/27 06:47:57;;;;;;;12.82;3.97;;;;;;;;;;7397425;19;20488;-59
2022/05/27 06:50:25;;;;;;;11.18;4.43;;;;;;;;;;7398717;19;20471;-61
2022/05/27 06:52:54;;;;;;;10.57;3.67;;;;;;;;;;7397331;19;20014;-61
2022/05/27 06:55:25;;;;;;;11.98;3.92;;;;;;;;;;7398682;19;20015;-55
2022/05/27 06:57:54;;;;;;;11.23;3.50;;;;;;;;;;7398342;19;20027;-57
2022/05/27 07:00:22;;;;;;;10.75;3.78;;;;;;;;;;7397958;19;20167;-60
2022/05/27 07:02:51;;;;;;;14.73;4.22;;;;;;;;;;7396040;19;20041;-61
2022/05/27 07:05:19;;;;;;;12.80;4.10;;;;;;;;;;7397609;19;20379;-55
2022/05/27 07:07:48;;;;;;;14.40;4.32;;;;;;;;;;7396005;19;20017;-59
2022/05/27 07:10:16;;;;;;;14.05;3.92;;;;;;;;;;7397486;19;20020;-62
2022/05/27 07:12:47;;;;;;;13.52;3.88;;;;;;;;;;7398302;19;20014;-58
2022/05/27 07:15:16;;;;;;;12.88;3.95;;;;;;;;;;7398505;19;20022;-59
2022/05/27 07:17:45;;;;;;;13.18;3.50;;;;;;;;;;7396143;19;20074;-58
2022/05/27 07:20:13;;;;;;;12.25;3.72;;;;;;;;;;7396800;19;20015;-61
2022/05/27 07:22:42;;;;;;;13.98;4.05;;;;;;;;;;7395229;19;20622;-57
2022/05/27 07:25:13;;;;;;;12.75;3.45;;;;;;;;;;7397816;19;20045;-60
2022/05/27 07:27:41;;;;;;;8.55;2.88;;;;;;;;;;7395714;19;20107;-55
2022/05/27 07:30:14;;;;;;;12.07;2.95;;;;;;;;;;7400327;19;20011;-58
2022/05/27 07:32:43;;;;;;;7.85;2.47;;;;;;;;;;7398081;19;20018;-58
2022/05/27 07:35:12;;;;;;;9.10;2.80;;;;;;;;;;7398101;19;20345;-54
2022/05/27 07:37:40;;;;;;;11.60;3.22;;;;;;;;;;7396215;19;20015;-58
2022/05/27 07:40:10;;;;;;;11.25;2.88;;;;;;;;;;7397506;19;20015;-57
2022/05/27 07:42:38;;;;;;;16.25;3.47;;;;;;;;;;7396101;19;20018;-55
2022/05/27 07:45:08;;;;;;;18.17;3.40;;;;;;;;;;7402070;19;20078;-60
2022/05/27 07:47:39;;;;;;;11.90;3.42;;;;;;;;;;7395619;19;20115;-57
2022/05/27 07:50:08;;;;;;;11.93;3.40;;;;;;;;;;7396877;19;20518;-59
2022/05/27 07:52:37;;;;;;;15.25;3.70;;;;;;;;;;7396948;19;20018;-58
2022/05/27 07:55:06;;;;;;;12.05;3.42;;;;;;;;;;7395440;19;20015;-61
2022/05/27 07:57:34;;;;;;;16.40;3.30;;;;;;;;;;7395116;19;20335;-53
2022/05/27 08:00:05;;;;;;;14.88;3.47;;;;;;;;;;7393529;19;20023;-54
2022/05/27 08:02:43;;;;;;;12.35;3.17;;;;;;;;;;7394643;19;20014;-58
2022/05/27 08:05:12;;;;;;;14.98;3.70;;;;;;;;;;7397242;19;20024;-59
2022/05/27 08:07:40;;;;;;;17.13;3.97;;;;;;;;;;7393778;19;20030;-61
2022/05/27 08:10:10;;;;;;;14.32;3.47;;;;;;;;;;7396291;19;20014;-58
2022/05/27 08:12:39;;;;;;;14.38;3.08;;;;;;;;;;7396291;19;20368;-57
2022/05/27 08:15:08;;;;;;;17.95;3.20;;;;;;;;;;7397107;19;20015;-59
2022/05/27 08:17:37;;;;;;;9.57;3.17;;;;;;;;;;7394110;19;20047;-60
2022/05/27 08:20:09;;;;;;;13.27;3.22;;;;;;;;;;7395567;19;20006;-59
2022/05/27 08:22:37;;;;;;;13.52;3.20;;;;;;;;;;7394855;19;20015;-60
2022/05/27 08:25:06;;;;;;;10.52;3.10;;;;;;;;;;7398401;19;20491;-59
2022/05/27 08:27:35;;;;;;;13.27;3.28;;;;;;;;;;7394010;19;20014;-57
2022/05/27 08:30:03;;;;;;;15.20;3.35;;;;;;;;;;7394561;19;20031;-58
2022/05/27 08:32:32;;;;;;;15.35;3.60;;;;;;;;;;7395221;19;20021;-59
2022/05/27 08:40:31;;;;;;;10.68;3.08;;;;;;;;;;7394461;19;20010;-55
2022/05/27 08:43:03;;;;;;;12.32;3.15;;;;;;;;;;7394223;19;20038;-56
2022/05/27 08:45:34;;;;;;;10.80;2.83;;;;;;;;;;7394955;19;20775;-60
2022/05/27 08:48:06;;;;;;;11.50;3.63;;;;;;;;;;7394285;19;20038;-61
2022/05/27 08:50:38;;;;;;;13.95;3.47;;;;;;;;;;7394859;19;20094;-59
2022/05/27 08:53:26;;;;;;;9.45;3.17;;;;;;;;;;7398597;19;20053;-61
2022/05/27 09:01:23;;;;;;;11.27;3.30;;;;;;;;;;7391445;19;20011;-59
2022/05/27 09:03:54;;;;;;;12.10;3.03;;;;;;;;;;7395218;19;20010;-61
2022/05/27 09:06:26;;;;;;;12.63;3.20;;;;;;;;;;7397723;19;20477;-58
2022/05/27 09:08:58;;;;;;;12.70;3.22;;;;;;;;;;7394605;19;20014;-56
2022/05/27 09:11:31;;;;;;;10.63;2.63;;;;;;;;;;7393127;19;20074;-59
2022/05/27 09:14:04;;;;;;;9.68;2.92;;;;;;;;;;7395923;19;20021;-61
2022/05/27 09:16:32;;;;;;;;;;;;;;;;;;7393641;19;20518;-57
2022/05/27 09:19:05;;;;;;;14.63;3.65;;;;;;;;;;7394311;19;19921;-60
2022/05/27 09:21:39;;;;;;;15.43;3.13;;;;;;;;;;7395181;19;20025;-60
2022/05/27 09:24:21;;;;;;;13.80;3.60;;;;;;;;;;7395566;19;20022;-58
2022/05/27 09:26:54;;;;;;;10.00;3.00;;;;;;;;;;7394682;19;20014;-58
2022/05/27 09:29:30;;;;;;;12.13;3.30;;;;;;;;;;7393952;19;20021;-58
2022/05/27 09:32:03;;;;;;;13.88;3.17;;;;;;;;;;7393058;19;20018;-60
2022/05/27 09:34:34;;;;;;;9.85;3.30;;;;;;;;;;7397408;19;20014;-63
2022/05/27 09:37:05;;;;;;;11.02;3.00;;;;;;;;;;7392144;19;20479;-59
2022/05/27 09:39:36;;;;;;;9.70;3.10;;;;;;;;;;7392312;19;20019;-62
2022/05/27 09:42:10;;;;;;;12.95;3.40;;;;;;;;;;7392920;19;20017;-60
2022/05/27 09:44:42;;;;;;;10.68;3.67;;;;;;;;;;7393705;19;20010;-60
2022/05/27 09:47:10;;;;;;;11.80;3.40;;;;;;;;;;7393480;19;20018;-61
2022/05/27 09:49:40;;;;;;;8.20;2.83;;;;;;;;;;7392625;19;20107;-60
2022/05/27 09:52:09;;;;;;;11.65;3.40;;;;;;;;;;7393639;19;20731;-62
2022/05/27 09:54:42;;;;;;;10.38;2.90;;;;;;;;;;7392689;19;20017;-62
2022/05/27 09:57:18;;;;;;;14.68;3.78;;;;;;;;;;7392999;19;20026;-61
2022/05/27 09:59:47;;;;;;;12.63;3.25;;;;;;;;;;7392040;19;20056;-62
2022/05/27 10:02:18;;;;;;;11.30;3.65;;;;;;;;;;7396691;19;20048;-56
2022/05/27 10:04:54;;;;;;;10.43;3.35;;;;;;;;;;7393367;19;20019;-59
2022/05/27 10:07:41;;;;;;;9.43;3.10;;;;;;;;;;7390743;19;20051;-55
2022/05/27 10:10:26;;;;;;;10.77;3.13;;;;;;;;;;7391737;19;20010;-63
2022/05/27 10:12:57;;;;;;;12.60;3.30;;;;;;;;;;7392375;19;20013;-61
2022/05/27 10:15:31;;;;;;;33.28;4.07;;;;;;;;;;7395532;19;20078;-60
2022/05/27 10:18:14;;;;;;;14.13;3.15;;;;;;;;;;7392287;19;20013;-61
2022/05/27 10:20:43;;;;;;;12.75;3.45;;;;;;;;;;7391163;19;20026;-63
2022/05/27 10:23:13;;;;;;;21.05;3.53;;;;;;;;;;7395738;19;20019;-60
2022/05/27 10:25:43;;;;;;;9.43;3.33;;;;;;;;;;7399087;19;20014;-60
2022/05/27 10:28:26;;;;;;;9.65;3.20;;;;;;;;;;7400973;19;20566;-59
2022/05/27 10:30:55;;;;;;;9.52;3.35;;;;;;;;;;7399155;19;20010;-62
2022/05/27 10:33:25;;;;;;;10.45;3.33;;;;;;;;;;7399385;19;20018;-58
2022/05/27 10:35:54;;;;;;;11.70;3.13;;;;;;;;;;7398552;19;20061;-61
2022/05/27 10:38:33;;;;;;;17.23;3.58;;;;;;;;;;7399527;19;20017;-61
2022/05/27 10:41:04;;;;;;;10.07;3.45;;;;;;;;;;7398487;19;20022;-60
2022/05/27 10:43:44;;;;;;;10.32;3.05;;;;;;;;;;7400797;19;20077;-60
2022/05/27 10:46:15;;;;;;;16.35;4.07;;;;;;;;;;7397967;19;20476;-60
2022/05/27 10:49:10;;;;;;;11.68;3.03;;;;;;;;;;7399017;19;20014;-58
2022/05/27 10:51:48;;;;;;;8.90;2.50;;;;;;;;;;7396968;19;20078;-61
2022/05/27 10:54:25;;;;;;;10.45;3.85;;;;;;;;;;7399156;19;20425;-61
2022/05/27 11:02:34;;;;;;;14.90;3.60;;;;;;;;;;7398176;19;20344;-59
2022/05/27 11:05:19;;;;;;;11.20;3.50;;;;;;;;;;7398640;19;20007;-60
2022/05/27 11:07:53;;;;;;;9.80;3.22;;;;;;;;;;7395916;19;20666;-57
2022/05/27 11:10:35;;;;;;;10.50;2.63;;;;;;;;;;7401243;19;20028;-56
2022/05/27 11:15:59;;;;;;;12.20;3.30;;;;;;;;;;7398175;19;20101;-58
2022/05/27 11:18:35;;;;;;;9.57;3.03;;;;;;;;;;7399051;19;20018;-57
2022/05/27 11:21:16;;;;;;;10.90;3.10;;;;;;;;;;7399097;19;20414;-58
2022/05/27 11:24:02;;;;;;;8.05;2.85;;;;;;;;;;7399605;19;20074;-59
2022/05/27 11:26:35;;;;;;;9.00;3.00;;;;;;;;;;7399200;19;20033;-59
2022/05/27 11:29:07;;;;;;;14.27;3.33;;;;;;;;;;7399203;19;20075;-60
2022/05/27 11:31:43;;;;;;;14.40;3.22;;;;;;;;;;7400527;19;20094;-59
2022/05/27 11:34:19;;;;;;;7.50;2.10;;;;;;;;;;7398556;19;20044;-61
2022/05/27 11:36:54;;;;;;;9.88;3.30;;;;;;;;;;7400948;19;20487;-58
2022/05/27 11:39:34;;;;;;;12.80;3.30;;;;;;;;;;7397088;19;20482;-58
2022/05/27 11:42:08;;;;;;;9.40;2.95;;;;;;;;;;7399345;19;20014;-60
2022/05/27 11:44:41;;;;;;;9.02;3.13;;;;;;;;;;7396362;19;20066;-58
2022/05/27 11:47:24;;;;;;;12.60;3.40;;;;;;;;;;7395276;19;20018;-58
2022/05/27 11:50:03;;;;;;;10.32;3.70;;;;;;;;;;7396200;19;20784;-60
2022/05/27 11:52:46;;;;;;;9.70;2.80;;;;;;;;;;7401396;19;20024;-59
2022/05/27 11:55:24;;;;;;;12.68;3.15;;;;;;;;;;7396588;19;20075;-57
2022/05/27 11:58:00;;;;;;;9.85;3.05;;;;;;;;;;7392938;19;20090;-60
2022/05/27 12:00:30;;;;;;;19.83;5.20;;;;;;;;;;7395499;19;20082;-62
2022/05/27 12:03:00;;;;;;;30.27;10.40;;;;;;;;;;7399654;19;20025;-59
2022/05/27 12:05:33;;;;;;;14.13;3.88;;;;;;;;;;7396353;19;20026;-59
2022/05/27 12:08:04;;;;;;;12.52;3.90;;;;;;;;;;7395797;19;20028;-60
2022/05/27 12:10:37;;;;;;;14.77;5.70;;;;;;;;;;7395833;19;20052;-59
2022/05/27 12:13:09;;;;;;;12.63;4.00;;;;;;;;;;7396913;19;20038;-59
2022/05/27 12:15:39;;;;;;;12.02;3.42;;;;;;;;;;7395997;19;20014;-59
2022/05/27 12:18:11;;;;;;;15.75;3.88;;;;;;;;;;7396676;19;20543;-61
2022/05/27 12:20:43;;;;;;;12.27;2.90;;;;;;;;;;7395446;19;20011;-58
2022/05/27 12:23:14;;;;;;;12.00;2.88;;;;;;;;;;7395447;19;20014;-59
2022/05/27 12:25:45;;;;;;;8.95;2.83;;;;;;;;;;7395491;19;20368;-58
2022/05/27 12:28:17;;;;;;;10.25;2.90;;;;;;;;;;7395978;19;20011;-61
2022/05/27 12:30:46;;;;;;;10.32;3.50;;;;;;;;;;7394557;19;20006;-59
2022/05/27 12:33:17;;;;;;;10.05;2.88;;;;;;;;;;7398734;19;20010;-57
2022/05/27 12:35:59;;;;;;;11.57;3.92;;;;;;;;;;7394388;19;20015;-53
2022/05/27 12:38:28;;;;;;;10.45;2.90;;;;;;;;;;7395467;19;20050;-58
2022/05/27 12:40:57;;;;;;;7.88;3.00;;;;;;;;;;7393522;19;20096;-61
2022/05/27 12:43:28;;;;;;;10.50;3.17;;;;;;;;;;7394393;19;20014;-58
2022/05/27 12:45:58;;;;;;;15.25;3.50;;;;;;;;;;7393931;19;20018;-61
2022/05/27 12:48:34;;;;;;;8.63;2.97;;;;;;;;;;7396714;19;20018;-55
2022/05/27 12:51:07;;;;;;;22.55;3.33;;;;;;;;;;7389936;19;20025;-55
2022/05/27 12:53:42;;;;;;;8.88;2.60;;;;;;;;;;7391576;19;20476;-56
2022/05/27 13:02:18;;;;;;;13.68;3.28;;;;;;;;;;7393345;19;20003;-59
2022/05/27 13:04:48;;;;;;;11.90;3.00;;;;;;;;;;7394609;19;20017;-61
2022/05/27 13:07:23;;;;;;;11.15;3.22;;;;;;;;;;7392458;19;20026;-59
2022/05/27 13:09:52;;;;;;;8.95;2.63;;;;;;;;;;7393294;19;20122;-60
2022/05/27 13:12:38;;;;;;;12.13;3.78;;;;;;;;;;7393429;19;20007;-61
2022/05/27 13:15:11;;;;;;;9.63;2.53;;;;;;;;;;7393175;19;20021;-59
2022/05/27 13:17:45;;;;;;;9.25;3.13;;;;;;;;;;7391827;19;20018;-61
2022/05/27 13:20:21;;;;;;;9.98;3.03;;;;;;;;;;7394151;19;20025;-59
2022/05/27 13:22:58;;;;;;;9.98;2.78;;;;;;;;;;7392982;19;20090;-61
2022/05/27 13:25:29;;;;;;;8.32;2.83;;;;;;;;;;7393069;19;20021;-61
2022/05/27 13:27:59;;;;;;;13.65;2.70;;;;;;;;;;7393843;19;20034;-60
2022/05/27 13:30:48;;;;;;;7.95;2.80;;;;;;;;;;7392625;19;20015;-60
2022/05/27 13:33:17;;;;;;;7.90;2.75;;;;;;;;;;7392482;19;20025;-59
2022/05/27 13:35:46;;;;;;;10.50;2.90;;;;;;;;;;7393153;19;20018;-58
2022/05/27 13:38:20;;;;;;;14.63;2.97;;;;;;;;;;7393109;19;20381;-58
2022/05/27 13:40:49;;;;;;;11.43;2.53;;;;;;;;;;7391862;19;20020;-56
2022/05/27 13:43:19;;;;;;;9.02;2.67;;;;;;;;;;7392056;19;20007;-54
2022/05/27 13:45:49;;;;;;;8.70;1.90;;;;;;;;;;7391408;19;20023;-60
2022/05/27 13:48:22;;;;;;;11.57;2.80;;;;;;;;;;7391903;19;20018;-58
2022/05/27 13:50:51;;;;;;;12.85;2.90;;;;;;;;;;7391733;19;20090;-57
2022/05/27 13:53:27;;;;;;;11.25;2.70;;;;;;;;;;7395061;19;20030;-57
2022/05/27 13:55:57;;;;;;;12.43;2.90;;;;;;;;;;7391878;19;20010;-59
2022/05/27 13:58:27;;;;;;;16.75;3.28;;;;;;;;;;7391036;19;20010;-59
2022/05/27 14:01:01;;;;;;;7.05;2.58;;;;;;;;;;7392944;19;20022;-58
2022/05/27 14:03:32;;;;;;;10.30;2.95;;;;;;;;;;7392192;19;20023;-60
2022/05/27 14:06:02;;;;;;;9.23;3.58;;;;;;;;;;7392856;19;20060;-62
2022/05/27 14:08:40;;;;;;;11.98;3.20;;;;;;;;;;7392390;19;20018;-58
2022/05/27 14:11:16;;;;;;;16.55;3.40;;;;;;;;;;7391667;19;20422;-60
2022/05/27 14:13:48;;;;;;;10.15;3.15;;;;;;;;;;7392031;19;20476;-59
2022/05/27 14:16:24;;;;;;;9.90;2.67;;;;;;;;;;7393864;19;20015;-59
2022/05/27 14:18:54;;;;;;;11.13;3.10;;;;;;;;;;7391409;19;20023;-59
2022/05/27 14:24:08;;;;;;;8.53;2.53;;;;;;;;;;7392052;19;20078;-57
2022/05/27 14:26:39;;;;;;;11.25;2.80;;;;;;;;;;7390723;19;20330;-59
2022/05/27 14:29:11;;;;;;;9.43;2.72;;;;;;;;;;7389236;19;20019;-58
2022/05/27 14:31:40;;;;;;;13.90;3.33;;;;;;;;;;7392076;19;20069;-58
2022/05/27 14:34:13;;;;;;;10.93;2.90;;;;;;;;;;7391874;19;20048;-61
2022/05/27 14:36:43;;;;;;;12.60;2.50;;;;;;;;;;7388357;19;20026;-59
2022/05/27 14:39:14;;;;;;;6.63;2.35;;;;;;;;;;7393035;19;20013;-59
2022/05/27 14:41:44;;;;;;;17.38;3.05;;;;;;;;;;7391885;19;20025;-61
2022/05/27 14:44:21;;;;;;;10.73;2.90;;;;;;;;;;7391006;19;20360;-55
2022/05/27 14:47:06;;;;;;;9.75;2.97;;;;;;;;;;7391157;19;20085;-55
2022/05/27 14:49:42;;;;;;;8.48;2.80;;;;;;;;;;7390464;19;20028;-60
2022/05/27 14:52:16;;;;;;;8.52;2.33;;;;;;;;;;7391710;19;20018;-59
2022/05/27 14:54:47;;;;;;;9.43;2.80;;;;;;;;;;7393485;19;20126;-60
2022/05/27 14:57:19;;;;;;;12.52;3.10;;;;;;;;;;7392794;19;20022;-58
2022/05/27 14:59:51;;;;;;;12.95;2.65;;;;;;;;;;7390441;19;20023;-59
2022/05/27 15:02:24;;;;;;;11.50;2.83;;;;;;;;;;7390378;19;20021;-59
2022/05/27 15:05:00;;;;;;;11.60;2.67;;;;;;;;;;7388354;19;20042;-54
2022/05/27 15:07:35;;;;;;;11.90;2.72;;;;;;;;;;7388622;19;20026;-59
2022/05/27 15:10:10;;;;;;;12.98;3.22;;;;;;;;;;7396727;19;20015;-53
2022/05/27 15:12:38;;;;;;;10.38;2.55;;;;;;;;;;7401728;19;20019;-53
2022/05/27 15:15:07;;;;;;;10.77;2.60;;;;;;;;;;7397908;19;20023;-59
2022/05/27 15:17:36;;;;;;;34.25;4.00;;;;;;;;;;7395158;19;20104;-58
2022/05/27 15:20:07;;;;;;;19.55;3.90;;;;;;;;;;7399564;19;20015;-58
2022/05/27 15:22:43;;;;;;;10.30;2.88;;;;;;;;;;7397852;19;20014;-59
2022/05/27 15:25:15;;;;;;;8.93;2.45;;;;;;;;;;7395551;19;20022;-57
2022/05/27 15:33:16;;;;;;;10.23;3.35;;;;;;;;;;7397092;19;20037;-58
2022/05/27 15:35:47;;;;;;;11.02;3.95;;;;;;;;;;7394676;19;20021;-59
2022/05/27 15:38:17;;;;;;;15.00;2.75;;;;;;;;;;7396130;19;20014;-60